createdAt,value
2022-09-03T00:00:03.931Z,16.90
2022-09-03T00:05:11.763Z,16.80
2022-09-03T00:10:14.725Z,16.80
2022-09-03T00:15:18.408Z,16.70
2022-09-03T00:20:20.107Z,16.60
2022-09-03T00:25:22.144Z,16.60
2022-09-03T00:30:26.305Z,16.50
2022-09-03T00:35:28.626Z,16.50
2022-09-03T00:40:54.550Z,16.40
2022-09-03T00:46:05.227Z,16.40
2022-09-03T00:51:14.698Z,16.30
2022-09-03T00:56:22.053Z,16.30
2022-09-03T01:01:25.165Z,16.30
2022-09-03T01:06:32.632Z,16.30
2022-09-03T01:11:41.316Z,16.20
2022-09-03T01:16:48.666Z,16.20
2022-09-03T01:22:07.239Z,16.10
2022-09-03T01:27:20.578Z,16.10
2022-09-03T01:32:29.502Z,16.10
2022-09-03T01:37:36.658Z,16.00
2022-09-03T01:42:46.070Z,16.00
2022-09-03T01:47:53.247Z,16.00
2022-09-03T01:52:56.266Z,16.00
2022-09-03T01:57:59.007Z,15.90
2022-09-03T02:03:05.664Z,15.90
2022-09-03T02:08:05.423Z,15.80
2022-09-03T02:13:08.887Z,15.80
2022-09-03T02:18:17.854Z,15.70
2022-09-03T02:23:16.503Z,15.70
2022-09-03T02:28:17.150Z,15.60
2022-09-03T02:33:17.493Z,15.60
2022-09-03T02:38:20.054Z,15.50
2022-09-03T02:43:26.013Z,15.50
2022-09-03T02:48:26.232Z,15.50
2022-09-03T02:53:24.250Z,15.40
2022-09-03T02:58:22.263Z,15.40
2022-09-03T03:03:20.650Z,15.40
2022-09-03T03:08:23.966Z,15.30
2022-09-03T03:13:22.771Z,15.30
2022-09-03T03:18:20.836Z,15.20
2022-09-03T03:23:20.268Z,15.20
2022-09-03T03:28:19.866Z,15.10
2022-09-03T03:33:18.037Z,15.10
2022-09-03T03:38:16.862Z,15.10
2022-09-03T03:43:16.308Z,15.00
2022-09-03T03:48:14.364Z,15.00
2022-09-03T03:53:12.358Z,14.90
2022-09-03T03:58:10.542Z,14.90
2022-09-03T04:03:10.058Z,14.90
2022-09-03T04:08:08.130Z,14.80
2022-09-03T04:13:06.146Z,14.80
2022-09-03T04:18:04.288Z,14.80
2022-09-03T04:23:04.400Z,14.80
2022-09-03T04:28:03.814Z,14.80
2022-09-03T04:33:01.868Z,14.80
2022-09-03T04:37:59.847Z,14.90
2022-09-03T04:43:00.331Z,14.80
2022-09-03T04:47:59.650Z,14.80
2022-09-03T04:53:05.725Z,14.90
2022-09-03T04:58:08.382Z,14.90
2022-09-03T05:03:06.540Z,14.90
2022-09-03T05:08:05.820Z,14.90
2022-09-03T05:13:06.712Z,15.00
2022-09-03T05:18:04.776Z,15.10
2022-09-03T05:23:04.104Z,15.20
2022-09-03T05:28:02.893Z,15.20
2022-09-03T05:33:02.409Z,15.30
2022-09-03T05:38:01.714Z,15.40
2022-09-03T05:42:59.823Z,15.40
2022-09-03T05:48:02.639Z,15.50
2022-09-03T05:53:00.794Z,15.50
2022-09-03T05:57:58.833Z,15.50
2022-09-03T06:02:58.178Z,15.60
2022-09-03T06:07:57.755Z,15.80
2022-09-03T06:12:56.085Z,15.80
2022-09-03T06:17:54.117Z,15.90
2022-09-03T06:22:53.523Z,16.00
2022-09-03T06:27:53.055Z,16.10
2022-09-03T06:32:52.166Z,16.20
2022-09-03T06:37:52.086Z,16.30
2022-09-03T06:43:03.296Z,16.40
2022-09-03T06:48:01.367Z,16.50
2022-09-03T06:52:59.426Z,16.70
2022-09-03T06:57:58.846Z,16.80
2022-09-03T07:02:59.795Z,16.80
2022-09-03T07:07:58.270Z,16.80
2022-09-03T07:12:57.813Z,16.90
2022-09-03T07:17:55.990Z,17.10
2022-09-03T07:22:56.430Z,17.30
2022-09-03T07:27:54.629Z,17.50
2022-09-03T07:32:54.897Z,17.60
2022-09-03T07:37:55.639Z,17.80
2022-09-03T07:42:58.938Z,17.80
2022-09-03T07:47:58.765Z,18.00
2022-09-03T07:52:59.312Z,17.90
2022-09-03T07:57:58.379Z,18.00
2022-09-03T08:02:59.661Z,18.10
2022-09-03T08:07:57.707Z,18.30
2022-09-03T08:12:55.831Z,18.60
2022-09-03T08:17:53.900Z,18.90
2022-09-03T08:23:03.653Z,19.20
2022-09-03T08:28:01.759Z,19.60
2022-09-03T08:33:04.850Z,20.20
2022-09-03T08:38:07.072Z,20.50
2022-09-03T08:43:17.459Z,20.80
2022-09-03T08:48:21.740Z,21.30
2022-09-03T08:53:28.971Z,22.50
2022-09-03T08:58:28.822Z,24.00
2022-09-03T09:03:39.405Z,25.50
2022-09-03T09:08:47.387Z,26.20
2022-09-03T09:13:53.225Z,27.50
2022-09-03T09:19:04.891Z,28.60
2022-09-03T09:24:10.482Z,29.50
2022-09-03T09:29:11.527Z,30.40
2022-09-03T09:34:09.865Z,31.00
2022-09-03T09:39:11.942Z,31.70
2022-09-03T09:44:09.981Z,32.40
2022-09-03T09:49:30.980Z,32.10
2022-09-03T09:54:30.304Z,32.30
2022-09-03T09:59:28.338Z,32.60
2022-09-03T10:04:33.336Z,32.90
2022-09-03T10:09:34.468Z,33.70
2022-09-03T10:14:38.615Z,34.90
2022-09-03T10:20:04.602Z,35.40
2022-09-03T10:25:05.665Z,34.50
2022-09-03T10:30:03.946Z,32.30
2022-09-03T10:35:12.244Z,30.20
2022-09-03T10:40:25.014Z,29.40
2022-09-03T10:45:37.783Z,28.10
2022-09-03T10:50:48.414Z,26.50
2022-09-03T10:55:52.987Z,25.40
2022-09-03T11:00:55.341Z,24.80
2022-09-03T11:06:02.981Z,24.90
2022-09-03T11:11:11.432Z,25.20
2022-09-03T11:16:14.525Z,25.30
2022-09-03T11:21:15.634Z,25.20
2022-09-03T11:26:18.385Z,24.90
2022-09-03T11:31:32.136Z,25.10
2022-09-03T11:36:32.937Z,24.90
2022-09-03T11:41:36.715Z,25.30
2022-09-03T11:46:34.923Z,26.20
2022-09-03T11:51:37.702Z,26.20
2022-09-03T11:56:37.297Z,25.90
2022-09-03T12:01:37.644Z,26.10
2022-09-03T12:07:06.134Z,26.00
2022-09-03T12:12:16.418Z,25.20
2022-09-03T12:17:25.147Z,24.60
2022-09-03T12:22:25.528Z,24.40
2022-09-03T12:27:27.074Z,24.40
2022-09-03T12:32:26.385Z,24.20
2022-09-03T12:42:46.126Z,24.60
2022-09-03T12:47:45.073Z,24.80
2022-09-03T12:52:46.303Z,24.50
2022-09-03T12:57:49.098Z,24.80
2022-09-03T13:02:53.434Z,24.80
2022-09-03T13:07:55.398Z,24.50
2022-09-03T13:13:00.260Z,24.60
2022-09-03T13:18:26.022Z,24.20
2022-09-03T13:23:44.946Z,24.20
2022-09-03T13:28:58.518Z,24.20
2022-09-03T13:34:01.071Z,24.40
2022-09-03T13:39:05.934Z,24.30
2022-09-03T13:44:11.504Z,24.20
2022-09-03T13:49:40.970Z,24.20
2022-09-03T13:54:49.919Z,24.00
2022-09-03T13:59:53.223Z,24.10
2022-09-03T14:05:03.024Z,24.60
2022-09-03T14:10:08.425Z,24.60
2022-09-03T14:15:17.915Z,24.50
2022-09-03T14:20:23.353Z,24.70
2022-09-03T14:25:23.169Z,24.80
2022-09-03T14:30:34.401Z,24.70
2022-09-03T14:35:39.569Z,24.50
2022-09-03T14:40:44.824Z,24.40
2022-09-03T14:46:05.802Z,24.80
2022-09-03T14:51:20.042Z,25.30
2022-09-03T14:56:29.905Z,25.70
2022-09-03T15:01:38.777Z,26.10
2022-09-03T15:06:52.700Z,26.50
2022-09-03T15:11:55.453Z,26.60
2022-09-03T15:17:01.350Z,26.40
2022-09-03T15:22:09.717Z,26.10
2022-09-03T15:27:20.694Z,26.30
2022-09-03T15:32:39.775Z,26.50
2022-09-03T15:37:45.521Z,26.70
2022-09-03T15:42:45.055Z,26.90
2022-09-03T15:47:54.425Z,26.90
2022-09-03T15:53:00.149Z,27.00
2022-09-03T15:58:08.230Z,27.00
2022-09-03T16:03:11.861Z,27.10
2022-09-03T16:08:20.668Z,27.20
2022-09-03T16:13:39.990Z,27.10
2022-09-03T16:18:45.630Z,26.80
2022-09-03T16:23:53.218Z,26.90
2022-09-03T16:28:58.453Z,26.90
2022-09-03T16:34:08.385Z,26.80
2022-09-03T16:39:17.858Z,26.20
2022-09-03T16:44:25.281Z,26.20
2022-09-03T16:49:47.885Z,26.80
2022-09-03T16:55:00.691Z,28.00
2022-09-03T17:00:11.593Z,29.30
2022-09-03T17:05:38.024Z,30.10
2022-09-03T17:10:43.228Z,30.00
2022-09-03T17:15:45.888Z,28.80
2022-09-03T17:20:52.994Z,27.30
2022-09-03T17:25:55.310Z,26.00
2022-09-03T17:30:58.724Z,25.10
2022-09-03T17:36:07.532Z,24.30
2022-09-03T17:41:16.984Z,23.90
2022-09-03T17:46:29.085Z,23.40
2022-09-03T17:51:37.020Z,23.00
2022-09-03T17:56:46.086Z,22.80
2022-09-03T18:01:52.707Z,22.60
2022-09-03T18:06:59.141Z,22.50
2022-09-03T18:12:08.700Z,22.40
2022-09-03T18:17:12.884Z,22.20
2022-09-03T18:22:29.746Z,22.00
2022-09-03T18:27:52.077Z,21.90
2022-09-03T18:33:07.667Z,21.90
2022-09-03T18:38:24.684Z,21.90
2022-09-03T18:43:46.244Z,21.80
2022-09-03T18:49:09.898Z,21.80
2022-09-03T18:55:03.954Z,21.70
2022-09-03T19:00:28.219Z,21.70
2022-09-03T19:05:54.595Z,21.50
2022-09-03T19:11:19.453Z,21.40
2022-09-03T19:16:44.115Z,21.40
2022-09-03T19:22:06.342Z,21.30
2022-09-03T19:27:53.076Z,21.30
2022-09-03T19:33:20.784Z,21.20
2022-09-03T19:38:44.364Z,21.20
2022-09-03T19:44:14.330Z,21.10
2022-09-03T19:49:39.286Z,21.00
2022-09-03T19:54:55.586Z,21.10
2022-09-03T20:00:12.738Z,21.10
2022-09-03T20:05:32.728Z,21.00
2022-09-03T20:10:29.809Z,21.00
2022-09-03T20:15:40.054Z,20.90
2022-09-03T20:20:47.398Z,20.90
2022-09-03T20:26:07.285Z,20.90
2022-09-03T20:31:16.595Z,20.90
2022-09-03T20:36:25.402Z,20.90
2022-09-03T20:41:31.737Z,20.90
2022-09-03T20:46:46.491Z,20.90
2022-09-03T20:51:53.268Z,20.70
2022-09-03T20:57:09.065Z,20.70
2022-09-03T21:02:18.541Z,20.60
2022-09-03T21:07:24.861Z,20.60
2022-09-03T21:12:32.427Z,20.50
2022-09-03T21:17:43.177Z,20.50
2022-09-03T21:22:53.607Z,20.50
2022-09-03T21:27:57.302Z,20.40
2022-09-03T21:33:01.585Z,20.40
2022-09-03T21:38:05.311Z,20.30
2022-09-03T21:43:10.788Z,20.30
2022-09-03T21:48:15.010Z,20.30
2022-09-03T21:53:20.090Z,20.20
2022-09-03T21:58:30.266Z,20.10
2022-09-03T22:03:30.048Z,20.10
2022-09-03T22:08:32.729Z,20.10
2022-09-03T22:13:33.122Z,20.00
2022-09-03T22:18:35.858Z,19.90
2022-09-03T22:23:43.868Z,19.80
2022-09-03T22:28:49.268Z,19.70
2022-09-03T22:33:55.444Z,19.70
2022-09-03T22:39:16.204Z,19.60
2022-09-03T22:44:26.173Z,19.50
2022-09-03T22:49:36.306Z,19.40
2022-09-03T22:54:47.373Z,19.30
2022-09-03T22:59:55.495Z,19.20
2022-09-03T23:05:04.165Z,19.10
2022-09-03T23:10:06.455Z,19.10
2022-09-03T23:15:11.470Z,19.00
2022-09-03T23:20:16.159Z,19.00
2022-09-03T23:25:19.503Z,18.90
2022-09-03T23:30:17.753Z,18.90
2022-09-03T23:35:19.490Z,18.90
2022-09-03T23:40:43.873Z,18.80
2022-09-03T23:45:48.354Z,18.80
2022-09-03T23:50:59.189Z,18.70
2022-09-03T23:56:12.501Z,18.60
